sensor_id;sensor_type;location;lat;lon;timestamp;P1;durP1;ratioP1;P2;durP2;ratioP2
69953;SDS011;57276;51.364;12.376;2022-08-01T00:00:31;6.63;;;4.70;;
69953;SDS011;57276;51.364;12.376;2022-08-01T00:06:32;6.85;;;5.07;;
69953;SDS011;57276;51.364;12.376;2022-08-01T00:12:34;7.57;;;4.90;;
69953;SDS011;57276;51.364;12.376;2022-08-01T00:18:35;7.57;;;4.40;;
69953;SDS011;57276;51.364;12.376;2022-08-01T00:24:37;5.93;;;4.55;;
69953;SDS011;57276;51.364;12.376;2022-08-01T00:30:38;6.50;;;4.73;;
69953;SDS011;57276;51.364;12.376;2022-08-01T00:36:40;7.05;;;5.40;;
69953;SDS011;57276;51.364;12.376;2022-08-01T00:42:41;7.40;;;4.40;;
69953;SDS011;57276;51.364;12.376;2022-08-01T00:48:44;7.47;;;5.18;;
69953;SDS011;57276;51.364;12.376;2022-08-01T00:54:45;6.05;;;4.80;;
69953;SDS011;57276;51.364;12.376;2022-08-01T01:00:47;6.97;;;4.80;;
69953;SDS011;57276;51.364;12.376;2022-08-01T01:13:05;7.77;;;4.70;;
69953;SDS011;57276;51.364;12.376;2022-08-01T01:19:08;7.15;;;5.00;;
69953;SDS011;57276;51.364;12.376;2022-08-01T01:25:18;7.07;;;5.10;;
69953;SDS011;57276;51.364;12.376;2022-08-01T01:31:21;6.93;;;5.23;;
69953;SDS011;57276;51.364;12.376;2022-08-01T01:37:25;8.18;;;5.30;;
69953;SDS011;57276;51.364;12.376;2022-08-01T01:43:27;7.87;;;5.07;;
69953;SDS011;57276;51.364;12.376;2022-08-01T01:49:34;8.18;;;5.25;;
69953;SDS011;57276;51.364;12.376;2022-08-01T01:55:36;6.75;;;5.15;;
69953;SDS011;57276;51.364;12.376;2022-08-01T02:01:51;8.63;;;5.10;;
69953;SDS011;57276;51.364;12.376;2022-08-01T02:08:06;8.15;;;5.57;;
69953;SDS011;57276;51.364;12.376;2022-08-01T02:14:09;7.27;;;5.20;;
69953;SDS011;57276;51.364;12.376;2022-08-01T02:20:11;7.25;;;5.45;;
69953;SDS011;57276;51.364;12.376;2022-08-01T02:26:14;8.98;;;5.55;;
69953;SDS011;57276;51.364;12.376;2022-08-01T02:32:19;7.43;;;5.43;;
69953;SDS011;57276;51.364;12.376;2022-08-01T02:38:22;7.15;;;5.30;;
69953;SDS011;57276;51.364;12.376;2022-08-01T02:44:26;7.27;;;5.13;;
69953;SDS011;57276;51.364;12.376;2022-08-01T02:50:29;6.57;;;5.30;;
69953;SDS011;57276;51.364;12.376;2022-08-01T02:56:33;8.48;;;5.38;;
69953;SDS011;57276;51.364;12.376;2022-08-01T03:02:38;6.30;;;4.73;;
69953;SDS011;57276;51.364;12.376;2022-08-01T03:08:40;8.77;;;4.90;;
69953;SDS011;57276;51.364;12.376;2022-08-01T03:14:43;7.90;;;5.20;;
69953;SDS011;57276;51.364;12.376;2022-08-01T03:20:47;6.43;;;4.63;;
69953;SDS011;57276;51.364;12.376;2022-08-01T03:26:50;6.35;;;4.15;;
69953;SDS011;57276;51.364;12.376;2022-08-01T03:32:52;5.20;;;4.10;;
69953;SDS011;57276;51.364;12.376;2022-08-01T03:38:56;6.15;;;4.10;;
69953;SDS011;57276;51.364;12.376;2022-08-01T03:44:59;6.60;;;4.10;;
69953;SDS011;57276;51.364;12.376;2022-08-01T03:51:02;5.15;;;3.28;;
69953;SDS011;57276;51.364;12.376;2022-08-01T03:57:05;9.05;;;3.53;;
69953;SDS011;57276;51.364;12.376;2022-08-01T04:03:07;5.13;;;3.50;;
69953;SDS011;57276;51.364;12.376;2022-08-01T04:09:09;7.22;;;3.40;;
69953;SDS011;57276;51.364;12.376;2022-08-01T04:15:14;4.40;;;2.83;;
69953;SDS011;57276;51.364;12.376;2022-08-01T04:21:17;5.93;;;2.90;;
69953;SDS011;57276;51.364;12.376;2022-08-01T04:27:21;4.35;;;2.70;;
69953;SDS011;57276;51.364;12.376;2022-08-01T04:33:45;5.23;;;3.03;;
69953;SDS011;57276;51.364;12.376;2022-08-01T04:39:48;4.78;;;3.25;;
69953;SDS011;57276;51.364;12.376;2022-08-01T04:45:52;4.83;;;3.13;;
69953;SDS011;57276;51.364;12.376;2022-08-01T04:51:55;6.38;;;2.70;;
69953;SDS011;57276;51.364;12.376;2022-08-01T04:57:58;4.88;;;2.97;;
69953;SDS011;57276;51.364;12.376;2022-08-01T05:04:00;5.30;;;2.97;;
69953;SDS011;57276;51.364;12.376;2022-08-01T05:10:04;4.80;;;2.83;;
69953;SDS011;57276;51.364;12.376;2022-08-01T05:16:06;5.43;;;2.57;;
69953;SDS011;57276;51.364;12.376;2022-08-01T05:22:08;4.53;;;2.72;;
69953;SDS011;57276;51.364;12.376;2022-08-01T05:28:10;4.82;;;2.63;;
69953;SDS011;57276;51.364;12.376;2022-08-01T05:34:11;6.53;;;3.07;;
69953;SDS011;57276;51.364;12.376;2022-08-01T05:40:15;5.80;;;2.80;;
69953;SDS011;57276;51.364;12.376;2022-08-01T05:46:17;6.33;;;3.00;;
69953;SDS011;57276;51.364;12.376;2022-08-01T05:52:18;5.63;;;2.85;;
69953;SDS011;57276;51.364;12.376;2022-08-01T05:58:20;5.60;;;3.08;;
69953;SDS011;57276;51.364;12.376;2022-08-01T06:04:21;4.70;;;2.77;;
69953;SDS011;57276;51.364;12.376;2022-08-01T06:10:23;8.55;;;3.08;;
69953;SDS011;57276;51.364;12.376;2022-08-01T06:16:24;5.77;;;2.90;;
69953;SDS011;57276;51.364;12.376;2022-08-01T06:22:26;3.92;;;2.55;;
69953;SDS011;57276;51.364;12.376;2022-08-01T06:28:28;5.03;;;2.70;;
69953;SDS011;57276;51.364;12.376;2022-08-01T06:34:29;5.20;;;2.27;;
69953;SDS011;57276;51.364;12.376;2022-08-01T06:40:31;5.05;;;2.33;;
69953;SDS011;57276;51.364;12.376;2022-08-01T06:46:36;3.70;;;2.17;;
69953;SDS011;57276;51.364;12.376;2022-08-01T06:52:37;5.22;;;2.03;;
69953;SDS011;57276;51.364;12.376;2022-08-01T06:58:39;4.43;;;2.10;;
69953;SDS011;57276;51.364;12.376;2022-08-01T07:04:40;4.47;;;2.40;;
69953;SDS011;57276;51.364;12.376;2022-08-01T07:10:42;4.15;;;2.00;;
69953;SDS011;57276;51.364;12.376;2022-08-01T07:16:44;5.07;;;1.87;;
69953;SDS011;57276;51.364;12.376;2022-08-01T07:22:46;3.50;;;1.75;;
69953;SDS011;57276;51.364;12.376;2022-08-01T07:28:49;2.90;;;1.50;;
69953;SDS011;57276;51.364;12.376;2022-08-01T07:34:51;4.77;;;1.47;;
69953;SDS011;57276;51.364;12.376;2022-08-01T07:40:52;4.57;;;1.40;;
69953;SDS011;57276;51.364;12.376;2022-08-01T07:46:56;4.70;;;2.03;;
69953;SDS011;57276;51.364;12.376;2022-08-01T07:52:57;3.72;;;1.50;;
69953;SDS011;57276;51.364;12.376;2022-08-01T07:58:59;4.18;;;1.83;;
69953;SDS011;57276;51.364;12.376;2022-08-01T08:05:01;3.77;;;1.90;;
69953;SDS011;57276;51.364;12.376;2022-08-01T08:11:02;3.90;;;1.70;;
69953;SDS011;57276;51.364;12.376;2022-08-01T08:17:04;3.17;;;1.60;;
69953;SDS011;57276;51.364;12.376;2022-08-01T08:23:06;3.55;;;1.70;;
69953;SDS011;57276;51.364;12.376;2022-08-01T08:29:44;3.90;;;1.50;;
69953;SDS011;57276;51.364;12.376;2022-08-01T08:35:45;3.40;;;1.30;;
69953;SDS011;57276;51.364;12.376;2022-08-01T08:41:55;4.00;;;1.20;;
69953;SDS011;57276;51.364;12.376;2022-08-01T08:47:57;3.07;;;1.30;;
69953;SDS011;57276;51.364;12.376;2022-08-01T08:53:59;3.90;;;1.50;;
69953;SDS011;57276;51.364;12.376;2022-08-01T09:00:02;3.55;;;1.40;;
69953;SDS011;57276;51.364;12.376;2022-08-01T09:06:03;3.20;;;1.43;;
69953;SDS011;57276;51.364;12.376;2022-08-01T09:12:05;3.42;;;1.27;;
69953;SDS011;57276;51.364;12.376;2022-08-01T09:18:07;2.60;;;1.03;;
69953;SDS011;57276;51.364;12.376;2022-08-01T09:24:15;2.22;;;0.80;;
69953;SDS011;57276;51.364;12.376;2022-08-01T09:30:30;2.50;;;0.80;;
69953;SDS011;57276;51.364;12.376;2022-08-01T09:36:48;2.10;;;0.70;;
69953;SDS011;57276;51.364;12.376;2022-08-01T09:43:09;3.08;;;1.08;;
69953;SDS011;57276;51.364;12.376;2022-08-01T09:49:11;2.93;;;1.20;;
69953;SDS011;57276;51.364;12.376;2022-08-01T09:55:13;2.95;;;1.30;;
69953;SDS011;57276;51.364;12.376;2022-08-01T10:01:22;3.00;;;1.20;;
69953;SDS011;57276;51.364;12.376;2022-08-01T10:07:24;4.17;;;1.37;;
69953;SDS011;57276;51.364;12.376;2022-08-01T10:13:43;2.97;;;1.20;;
69953;SDS011;57276;51.364;12.376;2022-08-01T10:19:45;3.37;;;1.03;;
69953;SDS011;57276;51.364;12.376;2022-08-01T10:25:47;2.60;;;1.10;;
69953;SDS011;57276;51.364;12.376;2022-08-01T10:31:50;3.80;;;1.00;;
69953;SDS011;57276;51.364;12.376;2022-08-01T10:37:53;2.93;;;1.27;;
69953;SDS011;57276;51.364;12.376;2022-08-01T10:44:00;3.13;;;1.60;;
69953;SDS011;57276;51.364;12.376;2022-08-01T10:50:03;4.60;;;1.70;;
69953;SDS011;57276;51.364;12.376;2022-08-01T10:56:05;4.25;;;1.80;;
69953;SDS011;57276;51.364;12.376;2022-08-01T11:02:17;3.65;;;2.15;;
69953;SDS011;57276;51.364;12.376;2022-08-01T11:08:33;3.50;;;2.17;;
69953;SDS011;57276;51.364;12.376;2022-08-01T11:20:59;5.20;;;2.50;;
69953;SDS011;57276;51.364;12.376;2022-08-01T11:27:24;3.50;;;2.28;;
69953;SDS011;57276;51.364;12.376;2022-08-01T11:39:40;3.30;;;2.10;;
69953;SDS011;57276;51.364;12.376;2022-08-01T11:45:49;3.20;;;1.67;;
69953;SDS011;57276;51.364;12.376;2022-08-01T11:52:07;4.78;;;2.72;;
69953;SDS011;57276;51.364;12.376;2022-08-01T11:58:09;4.47;;;2.70;;
69953;SDS011;57276;51.364;12.376;2022-08-01T12:04:23;4.20;;;2.58;;
69953;SDS011;57276;51.364;12.376;2022-08-01T12:10:28;6.13;;;2.60;;
69953;SDS011;57276;51.364;12.376;2022-08-01T12:16:34;3.50;;;2.40;;
69953;SDS011;57276;51.364;12.376;2022-08-01T12:22:36;5.32;;;2.20;;
69953;SDS011;57276;51.364;12.376;2022-08-01T12:28:41;3.37;;;2.17;;
69953;SDS011;57276;51.364;12.376;2022-08-01T12:34:43;4.00;;;2.47;;
69953;SDS011;57276;51.364;12.376;2022-08-01T12:40:45;4.80;;;2.40;;
69953;SDS011;57276;51.364;12.376;2022-08-01T12:46:52;4.25;;;2.95;;
69953;SDS011;57276;51.364;12.376;2022-08-01T12:52:53;5.00;;;2.40;;
69953;SDS011;57276;51.364;12.376;2022-08-01T12:58:55;5.10;;;3.47;;
69953;SDS011;57276;51.364;12.376;2022-08-01T13:04:57;6.78;;;2.40;;
69953;SDS011;57276;51.364;12.376;2022-08-01T13:11:03;5.30;;;2.53;;
69953;SDS011;57276;51.364;12.376;2022-08-01T13:17:06;3.75;;;2.72;;
69953;SDS011;57276;51.364;12.376;2022-08-01T13:29:22;4.77;;;2.60;;
69953;SDS011;57276;51.364;12.376;2022-08-01T13:35:29;6.00;;;2.90;;
69953;SDS011;57276;51.364;12.376;2022-08-01T13:41:33;4.63;;;2.90;;
69953;SDS011;57276;51.364;12.376;2022-08-01T13:47:34;6.07;;;2.45;;
69953;SDS011;57276;51.364;12.376;2022-08-01T13:53:36;3.30;;;2.00;;
69953;SDS011;57276;51.364;12.376;2022-08-01T13:59:38;2.80;;;1.77;;
69953;SDS011;57276;51.364;12.376;2022-08-01T14:05:39;2.92;;;1.77;;
69953;SDS011;57276;51.364;12.376;2022-08-01T14:11:41;4.30;;;1.50;;
69953;SDS011;57276;51.364;12.376;2022-08-01T14:17:46;3.40;;;1.83;;
69953;SDS011;57276;51.364;12.376;2022-08-01T14:23:48;3.45;;;1.65;;
69953;SDS011;57276;51.364;12.376;2022-08-01T14:29:49;3.47;;;1.70;;
69953;SDS011;57276;51.364;12.376;2022-08-01T14:36:03;3.00;;;1.90;;
69953;SDS011;57276;51.364;12.376;2022-08-01T14:42:25;3.43;;;1.90;;
69953;SDS011;57276;51.364;12.376;2022-08-01T14:48:27;3.38;;;1.73;;
69953;SDS011;57276;51.364;12.376;2022-08-01T14:54:30;3.58;;;2.00;;
69953;SDS011;57276;51.364;12.376;2022-08-01T15:00:32;3.23;;;1.90;;
69953;SDS011;57276;51.364;12.376;2022-08-01T15:06:33;3.05;;;1.90;;
69953;SDS011;57276;51.364;12.376;2022-08-01T15:12:35;4.43;;;2.10;;
69953;SDS011;57276;51.364;12.376;2022-08-01T15:18:50;3.60;;;2.70;;
69953;SDS011;57276;51.364;12.376;2022-08-01T15:24:53;4.00;;;2.70;;
69953;SDS011;57276;51.364;12.376;2022-08-01T15:30:57;5.57;;;4.80;;
69953;SDS011;57276;51.364;12.376;2022-08-01T15:36:59;4.20;;;2.88;;
69953;SDS011;57276;51.364;12.376;2022-08-01T15:43:01;3.72;;;2.78;;
69953;SDS011;57276;51.364;12.376;2022-08-01T15:49:03;4.10;;;3.20;;
69953;SDS011;57276;51.364;12.376;2022-08-01T15:55:05;4.20;;;3.28;;
69953;SDS011;57276;51.364;12.376;2022-08-01T16:01:07;4.60;;;2.80;;
69953;SDS011;57276;51.364;12.376;2022-08-01T16:07:09;4.70;;;2.83;;
69953;SDS011;57276;51.364;12.376;2022-08-01T16:13:11;3.38;;;2.00;;
69953;SDS011;57276;51.364;12.376;2022-08-01T16:19:13;3.60;;;2.07;;
69953;SDS011;57276;51.364;12.376;2022-08-01T16:25:19;3.63;;;2.35;;
69953;SDS011;57276;51.364;12.376;2022-08-01T16:31:21;4.13;;;2.00;;
69953;SDS011;57276;51.364;12.376;2022-08-01T16:37:42;4.13;;;1.85;;
69953;SDS011;57276;51.364;12.376;2022-08-01T16:43:44;2.92;;;1.70;;
69953;SDS011;57276;51.364;12.376;2022-08-01T16:49:53;4.17;;;2.10;;
69953;SDS011;57276;51.364;12.376;2022-08-01T16:55:55;3.10;;;1.90;;
69953;SDS011;57276;51.364;12.376;2022-08-01T17:01:56;3.53;;;1.80;;
69953;SDS011;57276;51.364;12.376;2022-08-01T17:08:02;3.08;;;1.70;;
69953;SDS011;57276;51.364;12.376;2022-08-01T17:14:04;4.03;;;1.58;;
69953;SDS011;57276;51.364;12.376;2022-08-01T17:20:06;3.10;;;1.50;;
69953;SDS011;57276;51.364;12.376;2022-08-01T17:26:07;4.55;;;1.63;;
69953;SDS011;57276;51.364;12.376;2022-08-01T17:32:09;4.60;;;1.40;;
69953;SDS011;57276;51.364;12.376;2022-08-01T17:38:11;3.70;;;1.60;;
69953;SDS011;57276;51.364;12.376;2022-08-01T17:44:13;3.85;;;1.70;;
69953;SDS011;57276;51.364;12.376;2022-08-01T17:50:14;15.33;;;3.93;;
69953;SDS011;57276;51.364;12.376;2022-08-01T17:56:16;6.03;;;3.25;;
69953;SDS011;57276;51.364;12.376;2022-08-01T18:02:17;3.77;;;1.90;;
69953;SDS011;57276;51.364;12.376;2022-08-01T18:08:19;5.75;;;1.90;;
69953;SDS011;57276;51.364;12.376;2022-08-01T18:14:20;5.35;;;1.77;;
69953;SDS011;57276;51.364;12.376;2022-08-01T18:20:40;3.83;;;1.40;;
69953;SDS011;57276;51.364;12.376;2022-08-01T18:26:42;5.32;;;1.52;;
69953;SDS011;57276;51.364;12.376;2022-08-01T18:32:44;3.10;;;1.60;;
69953;SDS011;57276;51.364;12.376;2022-08-01T18:38:45;4.03;;;1.48;;
69953;SDS011;57276;51.364;12.376;2022-08-01T18:44:47;5.85;;;1.50;;
69953;SDS011;57276;51.364;12.376;2022-08-01T18:50:48;3.27;;;1.50;;
69953;SDS011;57276;51.364;12.376;2022-08-01T18:56:50;3.40;;;1.83;;
69953;SDS011;57276;51.364;12.376;2022-08-01T19:02:52;2.70;;;1.30;;
69953;SDS011;57276;51.364;12.376;2022-08-01T19:08:54;3.20;;;1.55;;
69953;SDS011;57276;51.364;12.376;2022-08-01T19:15:02;3.78;;;1.40;;
69953;SDS011;57276;51.364;12.376;2022-08-01T19:21:06;4.43;;;1.33;;
69953;SDS011;57276;51.364;12.376;2022-08-01T19:27:08;3.30;;;1.60;;
69953;SDS011;57276;51.364;12.376;2022-08-01T19:33:11;3.00;;;1.60;;
69953;SDS011;57276;51.364;12.376;2022-08-01T19:39:16;3.72;;;1.40;;
69953;SDS011;57276;51.364;12.376;2022-08-01T19:45:18;4.32;;;1.40;;
69953;SDS011;57276;51.364;12.376;2022-08-01T19:51:20;4.13;;;1.40;;
69953;SDS011;57276;51.364;12.376;2022-08-01T19:57:23;3.53;;;1.40;;
69953;SDS011;57276;51.364;12.376;2022-08-01T20:03:39;4.03;;;1.50;;
69953;SDS011;57276;51.364;12.376;2022-08-01T20:09:44;5.18;;;1.63;;
69953;SDS011;57276;51.364;12.376;2022-08-01T20:15:46;3.78;;;1.55;;
69953;SDS011;57276;51.364;12.376;2022-08-01T20:21:50;3.23;;;1.60;;
69953;SDS011;57276;51.364;12.376;2022-08-01T20:28:04;3.63;;;1.73;;
69953;SDS011;57276;51.364;12.376;2022-08-01T20:34:05;4.40;;;1.70;;
69953;SDS011;57276;51.364;12.376;2022-08-01T20:40:16;3.75;;;1.60;;
69953;SDS011;57276;51.364;12.376;2022-08-01T20:46:25;3.60;;;1.52;;
69953;SDS011;57276;51.364;12.376;2022-08-01T20:52:27;4.70;;;1.57;;
69953;SDS011;57276;51.364;12.376;2022-08-01T21:04:51;4.37;;;1.93;;
69953;SDS011;57276;51.364;12.376;2022-08-01T21:10:56;4.07;;;1.75;;
69953;SDS011;57276;51.364;12.376;2022-08-01T21:16:58;4.03;;;1.70;;
69953;SDS011;57276;51.364;12.376;2022-08-01T21:23:08;4.70;;;1.60;;
69953;SDS011;57276;51.364;12.376;2022-08-01T21:29:10;3.85;;;1.80;;
69953;SDS011;57276;51.364;12.376;2022-08-01T21:35:12;4.33;;;1.97;;
69953;SDS011;57276;51.364;12.376;2022-08-01T21:41:18;4.55;;;1.60;;
69953;SDS011;57276;51.364;12.376;2022-08-01T21:47:40;3.33;;;1.40;;
69953;SDS011;57276;51.364;12.376;2022-08-01T21:53:54;4.20;;;1.70;;
69953;SDS011;57276;51.364;12.376;2022-08-01T22:05:59;5.20;;;2.53;;
69953;SDS011;57276;51.364;12.376;2022-08-01T22:12:02;4.65;;;1.70;;
69953;SDS011;57276;51.364;12.376;2022-08-01T22:18:05;3.55;;;1.70;;
69953;SDS011;57276;51.364;12.376;2022-08-01T22:24:07;3.73;;;1.60;;
69953;SDS011;57276;51.364;12.376;2022-08-01T22:30:09;5.65;;;1.73;;
69953;SDS011;57276;51.364;12.376;2022-08-01T22:36:12;4.40;;;1.90;;
69953;SDS011;57276;51.364;12.376;2022-08-01T22:42:14;5.35;;;2.10;;
69953;SDS011;57276;51.364;12.376;2022-08-01T22:48:18;5.43;;;2.03;;
69953;SDS011;57276;51.364;12.376;2022-08-01T22:54:20;4.43;;;2.00;;
69953;SDS011;57276;51.364;12.376;2022-08-01T23:00:22;5.15;;;2.08;;
69953;SDS011;57276;51.364;12.376;2022-08-01T23:06:32;4.87;;;2.17;;
69953;SDS011;57276;51.364;12.376;2022-08-01T23:12:37;4.10;;;2.00;;
69953;SDS011;57276;51.364;12.376;2022-08-01T23:18:39;6.40;;;1.95;;
69953;SDS011;57276;51.364;12.376;2022-08-01T23:24:46;4.67;;;1.77;;
69953;SDS011;57276;51.364;12.376;2022-08-01T23:31:06;6.22;;;1.98;;
69953;SDS011;57276;51.364;12.376;2022-08-01T23:37:07;4.53;;;1.80;;
69953;SDS011;57276;51.364;12.376;2022-08-01T23:43:09;4.57;;;2.17;;
69953;SDS011;57276;51.364;12.376;2022-08-01T23:49:18;4.82;;;2.28;;
69953;SDS011;57276;51.364;12.376;2022-08-01T23:55:20;5.47;;;1.87;;
